createdAt,value
2022-12-06T00:00:34.691Z,98.41
2022-12-06T00:01:34.716Z,97.99
2022-12-06T00:02:34.821Z,98.41
2022-12-06T00:03:34.868Z,98.41
2022-12-06T00:04:34.817Z,98.41
2022-12-06T00:05:34.817Z,98.62
2022-12-06T00:06:34.815Z,98.62
2022-12-06T00:07:34.860Z,98.41
2022-12-06T00:08:34.807Z,98.52
2022-12-06T00:09:34.821Z,98.41
2022-12-06T00:10:34.821Z,98.47
2022-12-06T00:11:34.826Z,98.26
2022-12-06T00:12:34.833Z,98.26
2022-12-06T00:13:34.838Z,98.26
2022-12-06T00:14:34.857Z,97.85
2022-12-06T00:15:34.883Z,97.85
2022-12-06T00:16:34.978Z,97.99
2022-12-06T00:17:40.090Z,98.20
2022-12-06T00:18:34.906Z,98.41
2022-12-06T00:19:34.917Z,98.31
2022-12-06T00:20:34.932Z,98.31
2022-12-06T00:21:34.933Z,98.31
2022-12-06T00:22:34.942Z,98.52
2022-12-06T00:23:34.930Z,98.72
2022-12-06T00:24:34.948Z,98.52
2022-12-06T00:25:34.949Z,98.62
2022-12-06T00:26:34.930Z,98.41
2022-12-06T00:27:35.112Z,98.62
2022-12-06T00:28:34.963Z,98.52
2022-12-06T00:29:34.970Z,98.41
2022-12-06T00:30:34.960Z,98.20
2022-12-06T00:31:35.022Z,98.62
2022-12-06T00:32:34.950Z,98.72
2022-12-06T00:33:34.960Z,98.57
2022-12-06T00:34:34.970Z,98.36
2022-12-06T00:35:34.953Z,98.20
2022-12-06T00:36:34.961Z,98.10
2022-12-06T00:37:34.952Z,98.52
2022-12-06T00:38:34.943Z,98.83
2022-12-06T00:39:34.955Z,98.83
2022-12-06T00:40:34.953Z,98.62
2022-12-06T00:41:34.973Z,98.52
2022-12-06T00:42:34.954Z,98.52
2022-12-06T00:43:34.945Z,98.62
2022-12-06T00:44:34.952Z,98.57
2022-12-06T00:45:34.979Z,98.36
2022-12-06T00:46:35.003Z,98.26
2022-12-06T00:47:35.014Z,98.26
2022-12-06T00:48:35.017Z,98.26
2022-12-06T00:49:35.012Z,98.36
2022-12-06T00:50:35.042Z,97.85
2022-12-06T00:51:35.043Z,97.89
2022-12-06T00:52:35.053Z,98.20
2022-12-06T00:53:35.054Z,98.62
2022-12-06T00:54:35.053Z,98.83
2022-12-06T00:55:35.143Z,98.93
2022-12-06T00:56:35.143Z,98.62
2022-12-06T00:57:35.142Z,98.72
2022-12-06T00:58:35.133Z,98.83
2022-12-06T00:59:35.135Z,98.99
2022-12-06T01:00:35.124Z,98.88
2022-12-06T01:01:35.187Z,98.68
2022-12-06T01:02:35.215Z,98.16
2022-12-06T01:03:35.565Z,98.26
2022-12-06T01:04:35.297Z,98.36
2022-12-06T01:05:35.296Z,98.16
2022-12-06T01:06:35.295Z,98.01
2022-12-06T01:07:35.357Z,97.80
2022-12-06T01:08:35.276Z,97.80
2022-12-06T01:09:35.286Z,97.74
2022-12-06T01:10:35.308Z,97.85
2022-12-06T01:11:35.297Z,98.05
2022-12-06T01:12:35.297Z,97.95
2022-12-06T01:13:35.305Z,97.85
2022-12-06T01:14:35.317Z,97.89
2022-12-06T01:15:35.400Z,98.41
2022-12-06T01:16:35.640Z,98.62
2022-12-06T01:17:35.439Z,98.83
2022-12-06T01:18:35.437Z,99.04
2022-12-06T01:19:35.438Z,99.14
2022-12-06T01:20:35.499Z,99.04
2022-12-06T01:21:35.508Z,98.93
2022-12-06T01:22:35.498Z,99.04
2022-12-06T01:23:35.499Z,98.68
2022-12-06T01:24:35.509Z,98.88
2022-12-06T01:25:36.389Z,98.68
2022-12-06T01:26:35.587Z,98.68
2022-12-06T01:27:35.599Z,98.16
2022-12-06T01:28:35.610Z,98.05
2022-12-06T01:29:35.611Z,98.31
2022-12-06T01:30:35.671Z,98.47
2022-12-06T01:31:39.036Z,98.36
2022-12-06T01:32:35.661Z,98.26
2022-12-06T01:33:35.650Z,98.20
2022-12-06T01:34:35.660Z,98.62
2022-12-06T01:35:35.660Z,98.72
2022-12-06T01:36:35.662Z,98.68
2022-12-06T01:37:35.668Z,98.57
2022-12-06T01:38:35.672Z,98.57
2022-12-06T01:39:35.692Z,98.57
2022-12-06T01:40:35.759Z,98.68
2022-12-06T01:41:35.765Z,98.57
2022-12-06T01:42:35.761Z,98.26
2022-12-06T01:43:35.751Z,98.36
2022-12-06T01:44:35.773Z,98.62
2022-12-06T01:45:35.762Z,98.62
2022-12-06T01:46:35.803Z,98.52
2022-12-06T01:47:35.823Z,98.52
2022-12-06T01:48:35.812Z,98.93
2022-12-06T01:49:35.844Z,98.62
2022-12-06T01:50:35.844Z,98.72
2022-12-06T01:51:35.853Z,98.72
2022-12-06T01:52:35.843Z,98.72
2022-12-06T01:53:35.838Z,99.04
2022-12-06T01:54:35.834Z,98.88
2022-12-06T01:55:35.844Z,98.99
2022-12-06T01:56:35.853Z,98.88
2022-12-06T01:57:35.853Z,98.99
2022-12-06T01:58:35.854Z,98.88
2022-12-06T01:59:35.903Z,98.68
2022-12-06T02:00:35.924Z,98.62
2022-12-06T02:01:36.020Z,98.83
2022-12-06T02:02:35.973Z,98.99
2022-12-06T02:03:35.884Z,98.88
2022-12-06T02:04:35.883Z,98.78
2022-12-06T02:05:40.514Z,98.72
2022-12-06T02:06:35.905Z,98.83
2022-12-06T02:07:35.957Z,98.93
2022-12-06T02:08:35.910Z,99.24
2022-12-06T02:09:35.907Z,98.99
2022-12-06T02:10:35.905Z,98.72
2022-12-06T02:11:36.043Z,98.93
2022-12-06T02:12:35.936Z,98.72
2022-12-06T02:13:35.967Z,98.97
2022-12-06T02:14:35.959Z,99.45
2022-12-06T02:15:35.947Z,99.24
2022-12-06T02:16:36.143Z,99.35
2022-12-06T02:17:36.058Z,99.35
2022-12-06T02:18:36.058Z,99.45
2022-12-06T02:19:36.057Z,99.45
2022-12-06T02:20:36.060Z,99.45
2022-12-06T02:21:36.054Z,99.24
2022-12-06T02:22:36.057Z,99.35
2022-12-06T02:23:36.058Z,99.24
2022-12-06T02:24:36.065Z,99.04
2022-12-06T02:25:39.462Z,99.35
2022-12-06T02:26:36.059Z,99.30
2022-12-06T02:27:36.067Z,99.04
2022-12-06T02:28:36.059Z,99.14
2022-12-06T02:29:36.071Z,99.14
2022-12-06T02:30:36.129Z,99.20
2022-12-06T02:31:36.059Z,99.04
2022-12-06T02:32:36.061Z,99.24
2022-12-06T02:33:36.069Z,99.41
2022-12-06T02:34:36.070Z,99.20
2022-12-06T02:35:36.078Z,98.99
2022-12-06T02:36:36.080Z,98.72
2022-12-06T02:37:36.079Z,98.93
2022-12-06T02:38:36.084Z,98.83
2022-12-06T02:39:36.100Z,98.93
2022-12-06T02:40:36.088Z,99.35
2022-12-06T02:41:36.113Z,99.24
2022-12-06T02:42:36.126Z,99.14
2022-12-06T02:43:36.130Z,99.04
2022-12-06T02:44:36.131Z,99.35
2022-12-06T02:45:36.137Z,99.35
2022-12-06T02:46:36.200Z,99.35
2022-12-06T02:47:36.161Z,99.24
2022-12-06T02:48:36.152Z,99.45
2022-12-06T02:49:36.142Z,99.55
2022-12-06T02:50:36.202Z,99.45
2022-12-06T02:51:36.215Z,99.14
2022-12-06T02:52:36.212Z,99.45
2022-12-06T02:53:36.212Z,99.14
2022-12-06T02:54:36.272Z,99.04
2022-12-06T02:55:37.201Z,99.24
2022-12-06T02:56:37.380Z,99.04
2022-12-06T02:57:37.241Z,98.93
2022-12-06T02:58:37.021Z,99.10
2022-12-06T02:59:36.469Z,98.93
2022-12-06T03:00:38.454Z,98.83
2022-12-06T03:01:36.531Z,98.83
2022-12-06T03:02:36.705Z,98.72
2022-12-06T03:03:36.444Z,98.62
2022-12-06T03:04:37.319Z,98.87
2022-12-06T03:05:36.696Z,99.24
2022-12-06T03:06:37.507Z,98.93
2022-12-06T03:07:37.521Z,98.97
2022-12-06T03:08:37.120Z,99.24
2022-12-06T03:09:36.688Z,99.24
2022-12-06T03:10:37.700Z,99.45
2022-12-06T03:11:36.813Z,99.35
2022-12-06T03:12:36.797Z,98.93
2022-12-06T03:13:36.918Z,98.72
2022-12-06T03:14:36.790Z,99.24
2022-12-06T03:15:37.102Z,99.14
2022-12-06T03:16:36.915Z,98.93
2022-12-06T03:17:37.103Z,98.93
2022-12-06T03:18:37.306Z,98.72
2022-12-06T03:19:36.942Z,98.83
2022-12-06T03:20:36.961Z,98.88
2022-12-06T03:21:37.021Z,98.52
2022-12-06T03:22:40.022Z,98.52
2022-12-06T03:23:37.269Z,98.36
2022-12-06T03:24:37.217Z,98.31
2022-12-06T03:25:37.234Z,98.31
2022-12-06T03:26:37.189Z,98.62
2022-12-06T03:27:37.223Z,98.72
2022-12-06T03:28:37.265Z,98.62
2022-12-06T03:29:37.477Z,98.41
2022-12-06T03:30:37.405Z,98.62
2022-12-06T03:31:37.488Z,98.52
2022-12-06T03:32:38.161Z,98.52
2022-12-06T03:33:37.560Z,98.72
2022-12-06T03:34:37.562Z,98.52
2022-12-06T03:35:37.555Z,98.62
2022-12-06T03:36:38.394Z,98.52
2022-12-06T03:37:37.718Z,98.41
2022-12-06T03:38:37.736Z,98.62
2022-12-06T03:39:37.581Z,98.62
2022-12-06T03:40:37.569Z,98.31
2022-12-06T03:41:37.568Z,98.41
2022-12-06T03:42:39.362Z,98.83
2022-12-06T03:43:37.639Z,98.72
2022-12-06T03:44:37.726Z,98.72
2022-12-06T03:45:37.716Z,98.87
2022-12-06T03:46:37.878Z,98.87
2022-12-06T03:47:37.792Z,98.97
2022-12-06T03:48:37.799Z,99.08
2022-12-06T03:49:37.808Z,99.18
2022-12-06T03:50:38.058Z,99.29
2022-12-06T03:51:37.833Z,99.35
2022-12-06T03:52:37.904Z,99.14
2022-12-06T03:53:37.923Z,98.97
2022-12-06T03:54:37.834Z,99.24
2022-12-06T03:55:37.848Z,98.93
2022-12-06T03:56:37.842Z,99.14
2022-12-06T03:57:37.997Z,99.04
2022-12-06T03:58:37.847Z,99.14
2022-12-06T03:59:37.845Z,98.83
2022-12-06T04:00:37.923Z,98.83
2022-12-06T04:01:37.961Z,98.41
2022-12-06T04:02:38.806Z,98.62
2022-12-06T04:03:38.143Z,98.83
2022-12-06T04:04:38.015Z,98.83
2022-12-06T04:05:38.161Z,98.93
2022-12-06T04:06:38.260Z,98.83
2022-12-06T04:07:38.158Z,98.93
2022-12-06T04:08:38.252Z,98.83
2022-12-06T04:09:38.952Z,98.62
2022-12-06T04:10:38.119Z,98.47
2022-12-06T04:11:38.172Z,98.36
2022-12-06T04:12:38.256Z,98.26
2022-12-06T04:13:38.179Z,98.26
2022-12-06T04:14:38.222Z,98.16
2022-12-06T04:15:38.344Z,98.16
2022-12-06T04:16:38.332Z,97.99
2022-12-06T04:17:38.294Z,98.20
2022-12-06T04:18:38.327Z,98.26
2022-12-06T04:19:38.367Z,97.89
2022-12-06T04:20:38.441Z,98.10
2022-12-06T04:21:38.390Z,98.20
2022-12-06T04:22:39.380Z,98.20
2022-12-06T04:23:38.367Z,98.31
2022-12-06T04:24:38.391Z,98.77
2022-12-06T04:25:38.519Z,98.93
2022-12-06T04:26:38.545Z,99.04
2022-12-06T04:27:38.491Z,98.72
2022-12-06T04:28:38.616Z,98.52
2022-12-06T04:29:38.722Z,98.93
2022-12-06T04:30:38.706Z,98.72
2022-12-06T04:31:38.911Z,98.93
2022-12-06T04:32:38.699Z,98.62
2022-12-06T04:33:39.649Z,98.62
2022-12-06T04:34:38.756Z,98.62
2022-12-06T04:35:41.542Z,98.72
2022-12-06T04:36:39.794Z,98.83
2022-12-06T04:37:38.790Z,98.83
2022-12-06T04:38:38.788Z,98.62
2022-12-06T04:39:38.815Z,98.52
2022-12-06T04:40:39.541Z,98.72
2022-12-06T04:41:38.889Z,98.72
2022-12-06T04:42:38.904Z,98.72
2022-12-06T04:43:38.906Z,99.14
2022-12-06T04:44:38.924Z,99.14
2022-12-06T04:45:38.976Z,99.14
2022-12-06T04:46:38.994Z,99.35
2022-12-06T04:47:39.030Z,99.24
2022-12-06T04:48:39.021Z,99.24
2022-12-06T04:49:39.046Z,98.93
2022-12-06T04:50:39.052Z,98.88
2022-12-06T04:51:39.051Z,98.88
2022-12-06T04:52:39.060Z,98.99
2022-12-06T04:53:39.071Z,98.88
2022-12-06T04:54:39.084Z,98.68
2022-12-06T04:55:39.081Z,98.68
2022-12-06T04:56:39.083Z,98.47
2022-12-06T04:57:39.083Z,98.68
2022-12-06T04:58:39.083Z,98.36
2022-12-06T04:59:39.096Z,98.36
2022-12-06T05:00:39.104Z,98.26
2022-12-06T05:01:39.115Z,98.57
2022-12-06T05:02:39.132Z,98.63
2022-12-06T05:03:44.001Z,98.32
2022-12-06T05:04:40.067Z,98.32
2022-12-06T05:05:40.073Z,98.43
2022-12-06T05:06:39.311Z,98.11
2022-12-06T05:07:39.433Z,98.22
2022-12-06T05:08:39.255Z,98.22
2022-12-06T05:09:39.256Z,98.11
2022-12-06T05:10:39.265Z,98.32
2022-12-06T05:11:39.266Z,98.22
2022-12-06T05:12:39.265Z,98.01
2022-12-06T05:13:40.044Z,98.11
2022-12-06T05:14:39.455Z,98.11
2022-12-06T05:15:39.401Z,97.80
2022-12-06T05:16:40.189Z,97.80
2022-12-06T05:17:39.445Z,97.80
2022-12-06T05:18:40.395Z,97.80
2022-12-06T05:19:40.338Z,97.70
2022-12-06T05:20:40.241Z,97.91
2022-12-06T05:21:39.616Z,97.91
2022-12-06T05:22:39.609Z,97.80
2022-12-06T05:23:39.597Z,97.80
2022-12-06T05:24:39.606Z,97.70
2022-12-06T05:25:39.605Z,97.70
2022-12-06T05:26:40.550Z,97.70
2022-12-06T05:27:40.478Z,97.80
2022-12-06T05:28:41.109Z,97.70
2022-12-06T05:29:41.148Z,97.49
2022-12-06T05:30:39.728Z,97.91
2022-12-06T05:31:40.806Z,97.80
2022-12-06T05:32:40.438Z,97.91
2022-12-06T05:33:39.854Z,97.91
2022-12-06T05:34:39.926Z,97.80
2022-12-06T05:35:40.569Z,98.01
2022-12-06T05:36:39.990Z,98.11
2022-12-06T05:37:39.919Z,98.01
2022-12-06T05:38:39.934Z,97.96
2022-12-06T05:39:40.800Z,97.96
2022-12-06T05:40:39.979Z,97.75
2022-12-06T05:41:39.981Z,97.55
2022-12-06T05:42:39.990Z,97.80
2022-12-06T05:43:39.992Z,97.70
2022-12-06T05:44:41.855Z,98.01
2022-12-06T05:45:40.779Z,98.11
2022-12-06T05:46:40.083Z,97.96
2022-12-06T05:47:40.340Z,97.80
2022-12-06T05:48:40.930Z,97.86
2022-12-06T05:49:40.152Z,97.96
2022-12-06T05:50:40.171Z,98.07
2022-12-06T05:51:40.170Z,97.96
2022-12-06T05:52:40.171Z,97.96
2022-12-06T05:53:41.660Z,97.96
2022-12-06T05:54:40.242Z,97.65
2022-12-06T05:55:40.251Z,97.91
2022-12-06T05:56:40.256Z,98.22
2022-12-06T05:57:45.616Z,98.17
2022-12-06T05:58:40.326Z,98.17
2022-12-06T05:59:40.332Z,98.48
2022-12-06T06:00:40.422Z,98.48
2022-12-06T06:01:40.373Z,98.27
2022-12-06T06:02:40.460Z,98.07
2022-12-06T06:03:46.966Z,98.32
2022-12-06T06:04:40.424Z,98.63
2022-12-06T06:05:40.424Z,98.59
2022-12-06T06:06:40.482Z,98.84
2022-12-06T06:07:41.477Z,98.84
2022-12-06T06:08:40.533Z,98.90
2022-12-06T06:09:40.544Z,99.05
2022-12-06T06:10:40.545Z,99.42
2022-12-06T06:11:40.564Z,99.21
2022-12-06T06:12:40.574Z,99.21
2022-12-06T06:13:40.577Z,99.01
2022-12-06T06:14:40.564Z,98.90
2022-12-06T06:15:41.278Z,99.21
2022-12-06T06:16:41.681Z,98.85
2022-12-06T06:17:40.614Z,98.90
2022-12-06T06:18:41.332Z,98.59
2022-12-06T06:19:40.676Z,98.69
2022-12-06T06:20:40.665Z,98.90
2022-12-06T06:21:40.677Z,98.85
2022-12-06T06:22:40.666Z,98.85
2022-12-06T06:23:40.726Z,98.85
2022-12-06T06:24:40.766Z,98.75
2022-12-06T06:25:40.760Z,98.65
2022-12-06T06:26:40.771Z,98.33
2022-12-06T06:27:41.428Z,98.23
2022-12-06T06:28:42.631Z,98.44
2022-12-06T06:29:45.337Z,98.65
2022-12-06T06:30:41.530Z,98.85
2022-12-06T06:31:41.829Z,98.85
2022-12-06T06:32:41.721Z,98.75
2022-12-06T06:33:40.929Z,98.85
2022-12-06T06:34:40.918Z,98.91
2022-12-06T06:35:40.943Z,98.71
2022-12-06T06:36:45.537Z,98.50
2022-12-06T06:37:40.969Z,98.50
2022-12-06T06:38:40.961Z,98.29
2022-12-06T06:39:40.959Z,98.29
2022-12-06T06:40:41.054Z,98.50
2022-12-06T06:41:41.358Z,98.39
2022-12-06T06:42:42.557Z,98.39
2022-12-06T06:43:41.110Z,98.39
2022-12-06T06:44:41.121Z,98.44
2022-12-06T06:45:41.134Z,98.81
2022-12-06T06:46:41.140Z,99.02
2022-12-06T06:47:41.214Z,98.91
2022-12-06T06:48:41.223Z,98.71
2022-12-06T06:49:42.109Z,98.60
2022-12-06T06:50:41.210Z,98.50
2022-12-06T06:51:41.210Z,98.29
2022-12-06T06:52:41.202Z,98.08
2022-12-06T06:53:41.196Z,97.98
2022-12-06T06:54:41.201Z,98.39
2022-12-06T06:55:41.204Z,98.39
2022-12-06T06:56:41.201Z,98.60
2022-12-06T06:57:41.196Z,98.50
2022-12-06T06:58:41.193Z,98.60
2022-12-06T06:59:41.183Z,98.81
2022-12-06T07:00:41.202Z,98.81
2022-12-06T07:01:41.279Z,98.71
2022-12-06T07:02:41.315Z,98.85
2022-12-06T07:03:41.253Z,99.02
2022-12-06T07:04:42.820Z,99.02
2022-12-06T07:05:44.152Z,98.81
2022-12-06T07:06:42.020Z,98.71
2022-12-06T07:07:41.516Z,98.91
2022-12-06T07:08:41.405Z,99.12
2022-12-06T07:09:41.434Z,99.22
2022-12-06T07:10:42.377Z,99.02
2022-12-06T07:11:42.423Z,99.07
2022-12-06T07:12:41.505Z,98.86
2022-12-06T07:13:49.653Z,98.76
2022-12-06T07:14:43.063Z,98.66
2022-12-06T07:15:41.624Z,98.45
2022-12-06T07:16:41.686Z,98.55
2022-12-06T07:17:41.685Z,98.76
2022-12-06T07:18:42.496Z,98.66
2022-12-06T07:19:41.785Z,98.55
2022-12-06T07:20:41.807Z,98.66
2022-12-06T07:21:42.487Z,98.55
2022-12-06T07:22:41.866Z,98.55
2022-12-06T07:23:41.883Z,98.97
2022-12-06T07:24:45.466Z,99.18
2022-12-06T07:25:43.839Z,99.07
2022-12-06T07:26:41.947Z,99.33
2022-12-06T07:27:42.133Z,99.54
2022-12-06T07:28:41.998Z,99.64
2022-12-06T07:29:42.964Z,99.95
2022-12-06T07:30:42.297Z,99.99
2022-12-06T07:31:42.117Z,99.95
2022-12-06T07:32:42.148Z,99.99
2022-12-06T07:33:42.167Z,99.99
2022-12-06T07:34:42.190Z,99.99
2022-12-06T07:36:10.908Z,99.99
2022-12-06T07:36:42.310Z,99.95
2022-12-06T07:37:42.338Z,99.99
2022-12-06T07:38:42.403Z,99.99
2022-12-06T07:39:42.478Z,99.99
2022-12-06T07:41:03.495Z,99.99
2022-12-06T07:41:42.605Z,99.99
2022-12-06T07:42:42.460Z,99.99
2022-12-06T07:43:42.470Z,99.99
2022-12-06T07:44:43.445Z,99.99
2022-12-06T07:45:42.573Z,99.99
2022-12-06T07:46:42.584Z,99.99
2022-12-06T07:47:42.610Z,99.99
2022-12-06T07:48:42.641Z,99.99
2022-12-06T07:49:43.399Z,99.99
2022-12-06T07:50:42.651Z,99.99
2022-12-06T07:51:42.680Z,99.99
2022-12-06T07:52:42.702Z,99.99
2022-12-06T07:53:43.401Z,99.99
2022-12-06T07:54:42.794Z,99.99
2022-12-06T07:55:42.732Z,99.99
2022-12-06T07:56:42.750Z,99.99
2022-12-06T07:57:43.980Z,99.99
2022-12-06T07:58:43.280Z,99.99
2022-12-06T07:59:43.656Z,99.99
2022-12-06T08:00:42.841Z,99.99
2022-12-06T08:01:42.978Z,99.99
2022-12-06T08:02:45.143Z,99.99
2022-12-06T08:03:42.893Z,99.99
2022-12-06T08:04:43.065Z,99.99
2022-12-06T08:05:42.932Z,99.99
2022-12-06T08:06:42.953Z,99.99
2022-12-06T08:07:42.988Z,99.96
2022-12-06T08:08:42.945Z,99.91
2022-12-06T08:09:43.903Z,99.99
2022-12-06T08:10:42.984Z,99.96
2022-12-06T08:11:43.004Z,99.65
2022-12-06T08:12:43.685Z,99.65
2022-12-06T08:13:43.976Z,99.55
2022-12-06T08:14:43.094Z,99.76
2022-12-06T08:15:44.696Z,99.44
2022-12-06T08:16:43.156Z,99.55
2022-12-06T08:17:43.210Z,99.34
2022-12-06T08:18:43.165Z,99.13
2022-12-06T08:19:43.456Z,99.24
2022-12-06T08:20:44.195Z,99.03
2022-12-06T08:21:43.305Z,99.24
2022-12-06T08:22:43.356Z,99.38
2022-12-06T08:23:44.320Z,99.76
2022-12-06T08:24:43.447Z,99.96
2022-12-06T08:25:44.185Z,99.55
2022-12-06T08:26:44.535Z,99.76
2022-12-06T08:27:44.605Z,99.99
2022-12-06T08:28:43.791Z,99.96
2022-12-06T08:29:43.747Z,99.86
2022-12-06T08:30:44.090Z,99.76
2022-12-06T08:31:43.883Z,99.86
2022-12-06T08:32:43.837Z,99.96
2022-12-06T08:33:44.703Z,99.65
2022-12-06T08:34:43.890Z,99.76
2022-12-06T08:35:44.849Z,99.92
2022-12-06T08:36:43.944Z,99.82
2022-12-06T08:37:44.843Z,99.82
2022-12-06T08:38:44.719Z,99.51
2022-12-06T08:39:44.080Z,99.51
2022-12-06T08:40:44.112Z,99.09
2022-12-06T08:41:44.136Z,99.51
2022-12-06T08:42:44.159Z,99.61
2022-12-06T08:43:44.268Z,99.56
2022-12-06T08:44:47.803Z,99.46
2022-12-06T08:45:44.280Z,99.15
2022-12-06T08:46:46.241Z,99.04
2022-12-06T08:47:45.084Z,98.83
2022-12-06T08:48:44.473Z,98.83
2022-12-06T08:49:44.441Z,98.69
2022-12-06T08:50:44.501Z,98.63
2022-12-06T08:51:44.562Z,98.42
2022-12-06T08:52:44.927Z,98.58
2022-12-06T08:53:44.664Z,98.58
2022-12-06T08:54:47.396Z,98.48
2022-12-06T08:55:44.882Z,98.38
2022-12-06T08:56:45.820Z,98.38
2022-12-06T08:57:44.790Z,98.07
2022-12-06T08:58:44.854Z,98.17
2022-12-06T08:59:46.063Z,98.38
2022-12-06T09:00:44.893Z,98.27
2022-12-06T09:01:45.713Z,98.17
2022-12-06T09:02:45.844Z,98.38
2022-12-06T09:03:45.943Z,98.42
2022-12-06T09:04:46.276Z,98.79
2022-12-06T09:05:45.053Z,98.58
2022-12-06T09:06:45.053Z,98.79
2022-12-06T09:07:45.255Z,98.90
2022-12-06T09:08:45.095Z,98.48
2022-12-06T09:09:45.095Z,98.69
2022-12-06T09:10:45.095Z,98.38
2022-12-06T09:11:45.117Z,98.58
2022-12-06T09:12:45.170Z,98.79
2022-12-06T09:13:45.179Z,98.79
2022-12-06T09:14:45.176Z,99.05
2022-12-06T09:15:45.209Z,98.64
2022-12-06T09:16:45.876Z,98.58
2022-12-06T09:17:45.316Z,98.79
2022-12-06T09:18:45.326Z,98.95
2022-12-06T09:19:45.387Z,98.85
2022-12-06T09:20:45.468Z,98.85
2022-12-06T09:21:45.518Z,98.64
2022-12-06T09:22:45.581Z,98.95
2022-12-06T09:23:46.298Z,98.74
2022-12-06T09:24:45.597Z,98.64
2022-12-06T09:25:45.659Z,98.95
2022-12-06T09:26:45.654Z,98.95
2022-12-06T09:27:45.628Z,99.05
2022-12-06T09:28:45.649Z,99.16
2022-12-06T09:29:45.723Z,99.26
2022-12-06T09:30:45.840Z,99.11
2022-12-06T09:31:45.773Z,98.70
2022-12-06T09:32:45.780Z,98.80
2022-12-06T09:33:45.814Z,98.86
2022-12-06T09:34:45.849Z,98.44
2022-12-06T09:35:45.899Z,98.03
2022-12-06T09:36:45.930Z,98.24
2022-12-06T09:37:45.970Z,97.83
2022-12-06T09:38:45.970Z,97.88
2022-12-06T09:39:45.990Z,97.52
2022-12-06T09:40:45.991Z,97.62
2022-12-06T09:41:46.002Z,98.03
2022-12-06T09:42:46.072Z,98.03
2022-12-06T09:43:46.136Z,98.13
2022-12-06T09:44:46.141Z,98.44
2022-12-06T09:45:46.200Z,98.18
2022-12-06T09:46:46.258Z,98.70
2022-12-06T09:47:46.492Z,98.49
2022-12-06T09:48:49.280Z,98.91
2022-12-06T09:49:46.272Z,99.01
2022-12-06T09:50:46.284Z,98.86
2022-12-06T09:51:47.072Z,98.55
2022-12-06T09:52:50.204Z,98.39
2022-12-06T09:53:46.583Z,98.70
2022-12-06T09:54:51.729Z,98.86
2022-12-06T09:55:46.445Z,98.75
2022-12-06T09:56:46.494Z,98.65
2022-12-06T09:57:46.514Z,98.75
2022-12-06T09:58:48.265Z,98.61
2022-12-06T09:59:47.495Z,98.19
2022-12-06T10:00:46.554Z,98.13
2022-12-06T10:01:46.609Z,98.34
2022-12-06T10:02:46.697Z,98.24
2022-12-06T10:03:46.665Z,98.34
2022-12-06T10:04:46.676Z,98.34
2022-12-06T10:05:51.693Z,98.44
2022-12-06T10:06:46.636Z,98.24
2022-12-06T10:07:46.852Z,98.49
2022-12-06T10:08:46.889Z,98.91
2022-12-06T10:09:46.770Z,98.91
2022-12-06T10:10:46.797Z,99.17
2022-12-06T10:11:46.768Z,99.07
2022-12-06T10:12:48.662Z,99.07
2022-12-06T10:13:46.875Z,98.86
2022-12-06T10:14:47.000Z,98.75
2022-12-06T10:15:46.974Z,98.65
2022-12-06T10:16:49.608Z,98.86
2022-12-06T10:17:52.097Z,98.65
2022-12-06T10:18:47.983Z,98.86
2022-12-06T10:19:46.950Z,98.71
2022-12-06T10:20:46.950Z,98.50
2022-12-06T10:21:48.415Z,98.71
2022-12-06T10:22:47.698Z,98.40
2022-12-06T10:23:47.900Z,98.30
2022-12-06T10:24:46.991Z,98.19
2022-12-06T10:25:47.032Z,97.88
2022-12-06T10:26:47.071Z,97.84
2022-12-06T10:27:47.131Z,97.67
2022-12-06T10:28:47.090Z,97.67
2022-12-06T10:29:47.150Z,97.78
2022-12-06T10:30:48.052Z,97.84
2022-12-06T10:31:47.276Z,97.63
2022-12-06T10:32:47.361Z,97.53
2022-12-06T10:33:47.972Z,97.42
2022-12-06T10:34:49.235Z,97.16
2022-12-06T10:35:47.355Z,96.95
2022-12-06T10:36:47.422Z,97.62
2022-12-06T10:37:47.423Z,97.93
2022-12-06T10:38:47.432Z,97.88
2022-12-06T10:39:51.938Z,97.88
2022-12-06T10:40:47.516Z,97.57
2022-12-06T10:41:47.472Z,97.67
2022-12-06T10:42:50.321Z,97.53
2022-12-06T10:43:47.534Z,97.47
2022-12-06T10:44:47.525Z,97.16
2022-12-06T10:45:47.538Z,97.26
2022-12-06T10:46:47.565Z,97.26
2022-12-06T10:47:47.585Z,97.16
2022-12-06T10:48:47.605Z,97.41
2022-12-06T10:49:47.808Z,97.72
2022-12-06T10:50:47.728Z,97.83
2022-12-06T10:51:47.804Z,97.72
2022-12-06T10:52:47.814Z,97.83
2022-12-06T10:53:47.819Z,97.88
2022-12-06T10:54:49.498Z,97.67
2022-12-06T10:55:48.708Z,97.78
2022-12-06T10:56:48.798Z,97.26
2022-12-06T10:57:48.018Z,97.42
2022-12-06T10:58:48.824Z,97.22
2022-12-06T10:59:47.993Z,96.91
2022-12-06T11:00:48.953Z,97.01
2022-12-06T11:01:48.107Z,96.76
2022-12-06T11:02:48.051Z,96.55
2022-12-06T11:03:48.261Z,96.55
2022-12-06T11:04:50.146Z,96.24
2022-12-06T11:05:48.213Z,96.34
2022-12-06T11:06:54.372Z,95.67
2022-12-06T11:07:48.206Z,96.08
2022-12-06T11:08:48.189Z,96.23
2022-12-06T11:09:50.035Z,96.64
2022-12-06T11:10:48.259Z,96.70
2022-12-06T11:11:48.303Z,96.80
2022-12-06T11:12:48.379Z,96.49
2022-12-06T11:13:48.476Z,96.70
2022-12-06T11:14:48.515Z,96.91
2022-12-06T11:15:48.890Z,96.49
2022-12-06T11:16:48.525Z,96.70
2022-12-06T11:17:48.556Z,96.59
2022-12-06T11:18:48.658Z,96.80
2022-12-06T11:19:48.641Z,96.80
2022-12-06T11:20:49.115Z,96.80
2022-12-06T11:21:48.742Z,96.70
2022-12-06T11:22:48.692Z,96.64
2022-12-06T11:23:48.696Z,96.70
2022-12-06T11:24:48.783Z,96.70
2022-12-06T11:25:48.830Z,96.59
2022-12-06T11:26:48.826Z,96.59
2022-12-06T11:27:48.872Z,96.29
2022-12-06T11:28:48.857Z,96.19
2022-12-06T11:29:48.894Z,96.19
2022-12-06T11:30:49.028Z,95.98
2022-12-06T11:31:49.070Z,96.23
2022-12-06T11:32:49.368Z,96.23
2022-12-06T11:33:49.128Z,96.23
2022-12-06T11:34:49.133Z,96.12
2022-12-06T11:35:49.186Z,96.54
2022-12-06T11:36:49.205Z,96.49
2022-12-06T11:37:50.515Z,95.77
2022-12-06T11:38:49.227Z,95.92
2022-12-06T11:39:49.373Z,95.81
2022-12-06T11:40:49.405Z,96.02
2022-12-06T11:41:49.437Z,96.29
2022-12-06T11:42:50.700Z,96.24
2022-12-06T11:43:50.966Z,95.46
2022-12-06T11:44:50.198Z,95.46
2022-12-06T11:45:49.592Z,95.36
2022-12-06T11:46:49.656Z,95.77
2022-12-06T11:47:49.778Z,95.81
2022-12-06T11:48:49.690Z,95.81
2022-12-06T11:49:49.660Z,95.87
2022-12-06T11:50:49.768Z,95.77
2022-12-06T11:51:49.758Z,95.81
2022-12-06T11:52:49.761Z,96.02
2022-12-06T11:53:49.891Z,95.87
2022-12-06T11:54:49.867Z,96.08
2022-12-06T11:55:49.807Z,95.62
2022-12-06T11:56:49.854Z,95.73
2022-12-06T11:57:49.962Z,94.69
2022-12-06T11:58:50.018Z,95.10
2022-12-06T11:59:50.931Z,94.90
2022-12-06T12:00:50.046Z,95.10
2022-12-06T12:01:50.874Z,95.00
2022-12-06T12:02:50.124Z,94.90
2022-12-06T12:03:50.029Z,94.69
2022-12-06T12:04:50.031Z,94.69
2022-12-06T12:05:50.067Z,95.15
2022-12-06T12:06:50.048Z,95.87
2022-12-06T12:07:50.064Z,95.42
2022-12-06T12:08:50.203Z,95.21
2022-12-06T12:09:50.194Z,94.69
2022-12-06T12:10:50.144Z,94.63
2022-12-06T12:11:51.443Z,95.15
2022-12-06T12:12:50.143Z,95.36
2022-12-06T12:13:50.187Z,95.46
2022-12-06T12:14:51.280Z,95.36
2022-12-06T12:15:50.274Z,95.19
2022-12-06T12:16:50.260Z,95.36
2022-12-06T12:17:50.257Z,95.29
2022-12-06T12:18:50.232Z,95.29
2022-12-06T12:19:50.312Z,95.50
2022-12-06T12:20:50.324Z,95.46
2022-12-06T12:21:54.281Z,95.19
2022-12-06T12:22:50.657Z,95.09
2022-12-06T12:23:50.534Z,95.19
2022-12-06T12:25:50.496Z,95.19
2022-12-06T12:26:50.676Z,94.89
2022-12-06T12:27:51.631Z,95.09
2022-12-06T12:28:50.688Z,94.98
2022-12-06T12:29:50.662Z,94.89
2022-12-06T12:30:51.089Z,95.19
2022-12-06T12:31:50.814Z,94.73
2022-12-06T12:32:50.647Z,94.53
2022-12-06T12:33:50.671Z,94.43
2022-12-06T12:34:50.700Z,94.43
2022-12-06T12:35:50.730Z,94.32
2022-12-06T12:36:51.489Z,94.43
2022-12-06T12:37:50.706Z,94.53
2022-12-06T12:38:51.060Z,94.53
2022-12-06T12:39:51.812Z,94.01
2022-12-06T12:40:50.781Z,94.37
2022-12-06T12:41:50.767Z,94.63
2022-12-06T12:42:50.915Z,94.22
2022-12-06T12:44:02.354Z,94.12
2022-12-06T12:44:50.929Z,94.06
2022-12-06T12:45:51.195Z,94.32
2022-12-06T12:46:51.011Z,94.32
2022-12-06T12:47:52.002Z,94.47
2022-12-06T12:48:50.970Z,94.37
2022-12-06T12:49:51.889Z,94.68
2022-12-06T12:50:51.056Z,94.94
2022-12-06T12:51:51.886Z,94.73
2022-12-06T12:52:51.277Z,94.89
2022-12-06T12:53:51.164Z,95.29